Time;durP1;ratioP1;P1;durP2;ratioP2;P2;SDS_P1;SDS_P2;PMS_P1;PMS_P2;Temp;Humidity;BMP_temperature;BMP_pressure;BME280_temperature;BME280_humidity;BME280_pressure;Samples;Min_cycle;Max_cycle;Signal;HPM_P1;HPM_P2
2024/03/21 00:01:39;;;;;;;11.77;4.85;;;12.60;99.90;;;;;;4779962;29;20050;-77
2024/03/21 00:04:05;;;;;;;8.63;4.55;;;12.60;99.90;;;;;;4795297;29;20046;-77
2024/03/21 00:06:31;;;;;;;8.38;4.20;;;12.50;99.90;;;;;;4794948;29;20042;-77
2024/03/21 00:08:57;;;;;;;7.22;3.90;;;12.50;99.90;;;;;;4789968;29;20050;-77
2024/03/21 00:11:23;;;;;;;7.53;3.83;;;12.50;99.90;;;;;;4779807;29;20049;-76
2024/03/21 00:13:49;;;;;;;8.45;3.63;;;12.40;99.90;;;;;;4794734;29;20050;-77
2024/03/21 00:16:17;;;;;;;6.95;4.00;;;12.50;99.90;;;;;;4779526;29;20133;-77
2024/03/21 00:18:43;;;;;;;7.68;4.18;;;12.40;99.90;;;;;;4780010;29;20054;-77
2024/03/21 00:21:09;;;;;;;8.73;3.63;;;12.40;99.90;;;;;;4781974;29;20051;-77
2024/03/21 00:23:35;;;;;;;7.93;4.45;;;12.40;99.90;;;;;;4779178;29;20073;-77
2024/03/21 00:26:01;;;;;;;10.77;4.72;;;12.40;99.90;;;;;;4795554;29;20050;-77
2024/03/21 00:28:28;;;;;;;9.50;5.07;;;12.40;99.90;;;;;;4801183;29;20047;-77
2024/03/21 00:30:56;;;;;;;8.93;4.88;;;12.40;99.90;;;;;;4787123;29;20047;-77
2024/03/21 00:33:23;;;;;;;8.80;4.60;;;12.40;99.90;;;;;;4794831;29;20082;-77
2024/03/21 00:35:49;;;;;;;9.15;5.18;;;12.40;99.90;;;;;;4794346;29;20136;-77
2024/03/21 00:38:15;;;;;;;9.02;4.50;;;12.40;99.90;;;;;;4794477;29;20478;-77
2024/03/21 00:40:41;;;;;;;9.50;5.03;;;12.40;99.90;;;;;;4809558;29;20043;-77
2024/03/21 00:43:07;;;;;;;9.68;5.18;;;12.40;99.90;;;;;;4779358;29;20411;-77
2024/03/21 00:45:33;;;;;;;10.25;5.63;;;12.40;99.90;;;;;;4779648;29;20050;-77
2024/03/21 00:48:02;;;;;;;11.57;6.97;;;12.40;99.90;;;;;;4779333;29;20073;-77
2024/03/21 00:50:32;;;;;;;12.23;6.95;;;12.30;99.90;;;;;;4779360;29;20504;-77
2024/03/21 00:52:58;;;;;;;12.98;6.93;;;12.40;99.90;;;;;;4779145;29;20054;-77
2024/03/21 00:55:25;;;;;;;13.05;8.27;;;12.30;99.90;;;;;;4779268;29;20043;-77
2024/03/21 00:57:51;;;;;;;13.27;8.48;;;12.30;99.90;;;;;;4773217;29;20115;-77
2024/03/21 01:00:17;;;;;;;17.48;10.68;;;12.30;99.90;;;;;;4787915;29;20052;-77
2024/03/21 01:02:43;;;;;;;20.42;10.25;;;12.30;99.90;;;;;;4779011;29;20050;-77
2024/03/21 01:05:13;;;;;;;15.85;8.77;;;12.30;99.90;;;;;;4778915;29;20087;-77
2024/03/21 01:07:39;;;;;;;11.27;7.70;;;12.30;99.90;;;;;;4779514;29;20051;-77
2024/03/21 01:10:05;;;;;;;13.48;8.43;;;12.30;99.90;;;;;;4779045;29;20529;-77
2024/03/21 01:12:31;;;;;;;14.13;9.10;;;12.30;99.90;;;;;;4794008;29;20445;-77
2024/03/21 01:14:57;;;;;;;19.30;10.00;;;12.20;99.90;;;;;;4779051;29;20050;-77
2024/03/21 01:17:23;;;;;;;19.85;10.57;;;12.20;99.90;;;;;;4778796;29;20464;-77
2024/03/21 01:19:49;;;;;;;17.45;10.95;;;12.20;99.90;;;;;;4778780;29;20055;-77
2024/03/21 01:22:15;;;;;;;15.25;8.80;;;12.10;99.90;;;;;;4793621;29;20057;-77
2024/03/21 01:24:45;;;;;;;15.10;8.73;;;12.10;99.90;;;;;;4793740;29;20066;-77
2024/03/21 01:27:11;;;;;;;13.77;8.25;;;12.10;99.90;;;;;;4808761;29;20050;-77
2024/03/21 01:29:37;;;;;;;13.05;8.00;;;12.10;99.90;;;;;;4778669;29;20106;-77
2024/03/21 01:32:04;;;;;;;15.65;8.73;;;12.10;99.90;;;;;;4793581;29;20522;-77
2024/03/21 01:34:30;;;;;;;12.77;7.68;;;12.10;99.90;;;;;;4778119;29;20412;-77
2024/03/21 01:36:57;;;;;;;11.80;8.02;;;12.10;99.90;;;;;;4778680;29;20065;-77
2024/03/21 01:39:24;;;;;;;11.20;6.75;;;12.10;99.90;;;;;;4793357;29;20046;-77
2024/03/21 01:41:50;;;;;;;11.20;7.07;;;12.00;99.90;;;;;;4808258;29;20165;-76
2024/03/21 01:44:21;;;;;;;15.93;7.72;;;12.00;99.90;;;;;;4793425;29;20042;-77
2024/03/21 01:46:47;;;;;;;14.13;7.70;;;12.00;99.90;;;;;;4778485;29;20046;-77
2024/03/21 01:49:15;;;;;;;11.57;6.55;;;12.00;99.90;;;;;;4808350;29;20058;-77
2024/03/21 01:51:45;;;;;;;12.90;7.78;;;12.00;99.90;;;;;;4793413;29;20057;-77
2024/03/21 01:54:11;;;;;;;14.25;7.75;;;12.00;99.90;;;;;;4808317;29;20606;-77
2024/03/21 01:56:38;;;;;;;9.32;6.10;;;12.00;99.90;;;;;;4778171;29;20054;-77
2024/03/21 01:59:04;;;;;;;10.93;5.75;;;12.00;99.90;;;;;;4793192;29;20054;-77
2024/03/21 02:01:36;;;;;;;11.43;7.63;;;11.90;99.90;;;;;;4778151;29;20091;-77
2024/03/21 02:04:04;;;;;;;12.18;7.07;;;11.90;99.90;;;;;;4778678;29;20059;-77
2024/03/21 02:06:33;;;;;;;10.73;6.35;;;11.90;99.90;;;;;;4798894;29;20043;-77
2024/03/21 02:09:01;;;;;;;11.95;6.65;;;11.90;99.90;;;;;;4793133;29;20103;-77
2024/03/21 02:11:28;;;;;;;10.68;5.80;;;11.90;99.90;;;;;;4793942;29;20038;-77
2024/03/21 02:13:55;;;;;;;9.25;5.43;;;11.80;99.90;;;;;;4777737;29;20069;-77
2024/03/21 02:16:22;;;;;;;10.38;6.38;;;11.90;99.90;;;;;;4807995;29;20059;-77
2024/03/21 02:18:49;;;;;;;12.68;7.25;;;11.80;99.90;;;;;;4793095;29;20500;-77
2024/03/21 02:24:00;;;;;;;16.75;9.80;;;11.80;99.90;;;;;;4821239;29;20052;-77
2024/03/21 02:26:26;;;;;;;17.42;10.10;;;11.80;99.90;;;;;;4810343;29;20085;-77
2024/03/21 02:28:53;;;;;;;15.27;9.55;;;11.80;99.90;;;;;;4785169;29;20042;-77
2024/03/21 02:31:20;;;;;;;17.15;9.95;;;11.70;99.90;;;;;;4807789;29;20061;-77
2024/03/21 02:33:47;;;;;;;18.00;10.20;;;11.80;99.90;;;;;;4786089;29;20480;-77
2024/03/21 02:36:13;;;;;;;18.55;11.15;;;11.70;99.90;;;;;;4803148;29;20058;-77
2024/03/21 02:38:39;;;;;;;19.42;12.27;;;11.70;99.90;;;;;;4793292;29;20507;-77
2024/03/21 02:41:06;;;;;;;17.48;10.70;;;11.70;99.90;;;;;;4778075;29;20042;-77
2024/03/21 02:43:32;;;;;;;22.33;13.60;;;11.70;99.90;;;;;;4796704;29;20423;-77
2024/03/21 02:45:58;;;;;;;20.65;13.25;;;11.70;99.90;;;;;;4808690;29;20039;-77
2024/03/21 02:48:24;;;;;;;26.73;15.48;;;11.70;99.90;;;;;;4781462;29;20054;-77
2024/03/21 02:50:50;;;;;;;21.27;14.50;;;11.70;99.90;;;;;;4781461;29;20049;-76
2024/03/21 02:53:16;;;;;;;18.65;11.95;;;11.70;99.90;;;;;;4816499;29;20424;-76
2024/03/21 02:55:42;;;;;;;16.27;11.00;;;11.70;99.90;;;;;;4797429;29;20056;-77
2024/03/21 02:58:08;;;;;;;21.05;12.73;;;11.70;99.90;;;;;;4817691;29;20091;-77
2024/03/21 03:00:34;;;;;;;15.02;8.80;;;11.70;99.90;;;;;;4803097;29;20049;-77
2024/03/21 03:03:00;;;;;;;17.20;11.10;;;11.70;99.90;;;;;;4816468;29;20034;-77
2024/03/21 03:05:26;;;;;;;16.27;10.35;;;11.70;99.90;;;;;;4781108;29;20414;-77
2024/03/21 03:07:52;;;;;;;15.43;9.95;;;11.70;99.90;;;;;;4784836;29;20042;-77
2024/03/21 03:10:18;;;;;;;18.90;12.70;;;11.70;99.90;;;;;;4797270;29;20119;-77
2024/03/21 03:12:44;;;;;;;17.42;11.70;;;11.70;99.90;;;;;;4780744;29;20061;-77
2024/03/21 03:15:10;;;;;;;18.90;11.80;;;11.60;99.90;;;;;;4796378;29;20121;-76
2024/03/21 03:17:36;;;;;;;17.48;11.43;;;11.60;99.90;;;;;;4795429;29;20065;-77
2024/03/21 03:20:02;;;;;;;17.65;10.15;;;11.60;99.90;;;;;;4789639;29;20175;-77
2024/03/21 03:22:28;;;;;;;13.40;9.80;;;11.60;99.90;;;;;;4780579;29;20042;-77
2024/03/21 03:24:55;;;;;;;16.42;10.10;;;11.50;99.90;;;;;;4777475;29;20492;-77
2024/03/21 03:27:21;;;;;;;15.10;8.25;;;11.60;99.90;;;;;;4783574;29;20070;-77
2024/03/21 03:29:47;;;;;;;16.08;10.45;;;11.60;99.90;;;;;;4810808;29;20065;-77
2024/03/21 03:32:14;;;;;;;21.65;12.50;;;11.60;99.90;;;;;;4780305;29;20061;-77
2024/03/21 03:37:24;;;;;;;17.15;11.40;;;11.50;99.90;;;;;;4784974;29;20522;-77
2024/03/21 03:39:50;;;;;;;16.65;9.80;;;11.30;99.90;;;;;;4783974;29;20042;-77
2024/03/21 03:42:17;;;;;;;16.10;9.80;;;11.20;99.90;;;;;;4780090;29;20050;-76
2024/03/21 03:44:43;;;;;;;21.45;13.20;;;11.20;99.90;;;;;;4810916;29;20046;-76
2024/03/21 03:47:09;;;;;;;24.60;15.10;;;11.10;99.90;;;;;;4781089;29;20115;-76
2024/03/21 03:49:35;;;;;;;28.13;16.27;;;11.00;99.90;;;;;;4795286;29;20050;-77
2024/03/21 03:52:01;;;;;;;28.15;17.08;;;11.00;99.90;;;;;;4795349;29;20572;-77
2024/03/21 03:54:28;;;;;;;25.95;15.65;;;10.90;99.90;;;;;;4810662;29;20476;-77
2024/03/21 03:56:54;;;;;;;21.60;13.52;;;10.90;99.90;;;;;;4795583;29;20047;-77
2024/03/21 03:59:20;;;;;;;19.48;12.30;;;10.90;99.90;;;;;;4810902;29;20042;-77
2024/03/21 04:01:47;;;;;;;25.02;15.30;;;10.90;99.90;;;;;;4787074;29;20058;-77
2024/03/21 04:04:14;;;;;;;21.38;14.68;;;10.90;99.90;;;;;;4781045;29;20057;-76
2024/03/21 04:06:40;;;;;;;20.60;12.55;;;10.90;99.90;;;;;;4780648;29;20055;-77
2024/03/21 04:09:07;;;;;;;17.73;11.02;;;10.90;99.90;;;;;;4780520;29;20073;-76
2024/03/21 04:11:33;;;;;;;16.77;10.02;;;11.00;99.90;;;;;;4777345;29;20057;-76
2024/03/21 04:13:59;;;;;;;17.75;12.27;;;11.00;99.90;;;;;;4789824;29;20078;-77
2024/03/21 04:16:26;;;;;;;18.33;11.75;;;11.00;99.90;;;;;;4795167;29;20822;-77
2024/03/21 04:18:52;;;;;;;16.45;10.80;;;11.00;99.90;;;;;;4780443;29;20057;-76
2024/03/21 04:21:18;;;;;;;14.23;9.88;;;10.90;99.90;;;;;;4795135;29;20042;-77
2024/03/21 04:23:44;;;;;;;12.90;9.43;;;10.90;99.90;;;;;;4780510;29;20046;-76
2024/03/21 04:26:10;;;;;;;14.65;9.35;;;10.90;99.90;;;;;;4780292;29;20050;-76
2024/03/21 04:28:36;;;;;;;15.68;9.50;;;10.90;99.90;;;;;;4798695;29;20094;-77
2024/03/21 04:31:02;;;;;;;14.25;9.45;;;11.00;99.90;;;;;;4813172;29;20061;-77
2024/03/21 04:33:28;;;;;;;17.85;11.07;;;11.00;99.90;;;;;;4813456;29;20077;-77
2024/03/21 04:35:54;;;;;;;16.48;10.93;;;11.00;99.90;;;;;;4779679;29;20053;-77
2024/03/21 04:38:20;;;;;;;15.35;10.35;;;11.10;99.90;;;;;;4788128;29;20042;-77
2024/03/21 04:40:46;;;;;;;17.45;11.32;;;11.10;99.90;;;;;;4794224;29;20077;-76
2024/03/21 04:43:12;;;;;;;13.93;9.18;;;11.10;99.90;;;;;;4809511;29;20499;-77
2024/03/21 04:45:39;;;;;;;12.80;8.75;;;11.10;99.90;;;;;;4794263;29;20050;-77
2024/03/21 04:48:06;;;;;;;9.88;7.05;;;11.20;99.90;;;;;;4779464;29;20055;-77
2024/03/21 04:50:32;;;;;;;10.07;6.50;;;11.20;99.90;;;;;;4809256;29;20060;-77
2024/03/21 04:52:58;;;;;;;13.20;7.55;;;11.20;99.90;;;;;;4781906;29;20038;-76
2024/03/21 04:55:24;;;;;;;9.48;6.85;;;11.20;99.90;;;;;;4779905;29;20515;-77
2024/03/21 04:57:50;;;;;;;8.10;5.60;;;11.10;99.90;;;;;;4779449;29;20479;-77
2024/03/21 05:00:17;;;;;;;7.90;4.65;;;11.00;99.90;;;;;;4794315;29;20086;-77
2024/03/21 05:02:42;;;;;;;6.32;3.40;;;10.90;99.90;;;;;;4779051;29;20527;-77
2024/03/21 05:05:09;;;;;;;6.15;3.38;;;10.80;99.90;;;;;;4779406;29;20091;-77
2024/03/21 05:07:35;;;;;;;7.65;3.42;;;10.60;99.90;;;;;;4778904;29;20085;-77
2024/03/21 05:10:01;;;;;;;5.30;3.13;;;10.50;99.90;;;;;;4778629;29;20046;-77
2024/03/21 05:12:28;;;;;;;4.80;2.80;;;10.50;99.90;;;;;;4793713;29;20522;-77
2024/03/21 05:14:54;;;;;;;4.10;2.15;;;10.40;99.90;;;;;;4779391;29;20098;-77
2024/03/21 05:17:20;;;;;;;2.92;1.60;;;10.40;99.90;;;;;;4793786;29;20054;-77
2024/03/21 05:19:49;;;;;;;3.40;1.80;;;10.40;99.90;;;;;;4778781;29;20154;-77
2024/03/21 05:22:16;;;;;;;2.95;1.27;;;10.30;99.90;;;;;;4778653;29;20407;-77
2024/03/21 05:24:42;;;;;;;3.25;1.80;;;10.30;99.90;;;;;;4778738;29;20038;-77
2024/03/21 05:27:09;;;;;;;3.33;1.80;;;10.30;99.90;;;;;;4778591;29;20500;-77
2024/03/21 05:29:36;;;;;;;3.33;1.40;;;10.30;99.90;;;;;;4793416;29;20047;-77
2024/03/21 05:32:02;;;;;;;2.80;1.40;;;10.30;99.90;;;;;;4793601;29;20120;-77
2024/03/21 05:34:29;;;;;;;3.47;1.58;;;10.40;99.90;;;;;;4778587;29;20469;-77
2024/03/21 05:36:55;;;;;;;2.83;1.55;;;10.30;99.90;;;;;;4793377;29;20539;-77
2024/03/21 05:39:21;;;;;;;3.88;2.05;;;10.30;99.90;;;;;;4778393;29;20054;-77
2024/03/21 05:41:47;;;;;;;4.65;2.53;;;10.30;99.90;;;;;;4778648;29;20039;-77
2024/03/21 05:44:13;;;;;;;4.47;2.72;;;10.30;99.90;;;;;;4793545;29;20054;-77
2024/03/21 05:46:39;;;;;;;4.85;2.83;;;10.20;99.90;;;;;;4808437;29;20392;-77
2024/03/21 05:49:05;;;;;;;7.45;3.17;;;10.20;99.90;;;;;;4778428;29;20411;-77
2024/03/21 05:51:32;;;;;;;7.32;3.33;;;10.20;99.90;;;;;;4778929;29;20058;-77
2024/03/21 05:53:58;;;;;;;4.63;3.20;;;10.20;99.90;;;;;;4778441;29;20061;-77
2024/03/21 05:56:23;;;;;;;6.95;4.10;;;10.20;99.90;;;;;;4778295;29;20452;-79
2024/03/21 05:58:49;;;;;;;9.38;4.90;;;10.20;99.90;;;;;;4778283;29;20102;-79
2024/03/21 06:03:44;;;;;;;7.47;4.40;;;10.10;99.90;;;;;;4807889;29;20057;-77
2024/03/21 06:06:11;;;;;;;5.60;3.55;;;10.10;99.90;;;;;;4793045;29;20043;-77
2024/03/21 06:08:37;;;;;;;6.47;3.15;;;10.00;99.90;;;;;;4778091;29;20053;-77
2024/03/21 06:11:03;;;;;;;5.82;3.78;;;10.00;99.90;;;;;;4808039;29;20099;-78
2024/03/21 06:13:30;;;;;;;4.68;2.70;;;10.00;99.90;;;;;;4792562;29;20054;-78
2024/03/21 06:15:56;;;;;;;6.07;2.63;;;9.90;99.90;;;;;;4792765;29;20496;-77
2024/03/21 06:18:22;;;;;;;3.22;1.92;;;10.00;99.90;;;;;;4792664;29;20061;-78
2024/03/21 06:20:48;;;;;;;4.32;1.80;;;9.90;99.90;;;;;;4777733;29;20050;-78
2024/03/21 06:23:14;;;;;;;3.95;2.10;;;9.90;99.90;;;;;;4777916;29;20051;-77
2024/03/21 06:25:42;;;;;;;3.75;1.40;;;10.00;99.90;;;;;;4807678;29;20149;-78
2024/03/21 06:28:08;;;;;;;5.07;2.00;;;9.90;99.90;;;;;;4778331;29;20045;-78
2024/03/21 06:30:37;;;;;;;3.83;1.60;;;9.90;99.90;;;;;;4807700;29;20051;-77
2024/03/21 06:33:04;;;;;;;2.25;0.93;;;9.90;99.90;;;;;;4792830;29;20091;-78
2024/03/21 06:35:30;;;;;;;1.67;0.52;;;9.90;99.90;;;;;;4777601;29;20110;-78
2024/03/21 06:37:57;;;;;;;1.48;0.70;;;9.90;99.90;;;;;;4793880;29;20107;-78
2024/03/21 06:40:24;;;;;;;3.88;1.48;;;10.00;99.90;;;;;;4810025;29;20054;-78
2024/03/21 06:42:51;;;;;;;1.58;0.70;;;10.00;99.90;;;;;;4792898;29;20043;-77
2024/03/21 06:45:17;;;;;;;2.95;0.70;;;10.00;99.90;;;;;;4792917;29;20047;-77
2024/03/21 06:47:46;;;;;;;3.80;1.13;;;10.00;99.90;;;;;;4801364;29;20039;-82
2024/03/21 06:50:16;;;;;;;1.40;0.60;;;10.00;99.90;;;;;;4807892;29;20042;-82
2024/03/21 06:52:46;;;;;;;1.20;0.65;;;10.00;99.90;;;;;;4792594;29;20050;-82
2024/03/21 06:55:13;;;;;;;3.20;0.68;;;10.00;99.90;;;;;;4792796;29;20058;-82
2024/03/21 06:57:41;;;;;;;4.13;1.02;;;10.00;99.90;;;;;;4793287;29;20049;-83
2024/03/21 07:00:15;;;;;;;2.95;0.55;;;9.90;99.90;;;;;;4792488;29;20046;-83
2024/03/21 07:02:40;;;;;;;1.40;0.60;;;9.90;99.90;;;;;;4778374;29;20054;-83
2024/03/21 07:05:14;;;;;;;1.38;0.50;;;10.00;99.90;;;;;;4807429;29;20050;-83
2024/03/21 07:07:40;;;;;;;4.75;1.05;;;10.00;99.90;;;;;;4805194;29;20051;-83
2024/03/21 07:10:06;;;;;;;1.20;0.35;;;10.00;99.90;;;;;;4793006;29;20502;-83
2024/03/21 07:12:32;;;;;;;3.17;0.47;;;10.00;99.90;;;;;;4792329;29;20054;-83
2024/03/21 07:14:58;;;;;;;1.60;0.30;;;10.00;99.90;;;;;;4792583;29;20095;-83
2024/03/21 07:17:26;;;;;;;1.15;0.40;;;10.00;99.90;;;;;;4779657;29;20054;-83
2024/03/21 07:19:52;;;;;;;1.63;0.40;;;10.10;99.90;;;;;;4789436;29;20043;-83
2024/03/21 07:22:18;;;;;;;1.63;0.35;;;10.10;99.90;;;;;;4788568;29;20469;-83
2024/03/21 07:24:44;;;;;;;1.05;0.40;;;10.10;99.90;;;;;;4777191;29;20038;-83
2024/03/21 07:27:10;;;;;;;0.60;0.32;;;10.10;99.90;;;;;;4777420;29;20441;-83
2024/03/21 07:29:37;;;;;;;0.93;0.20;;;10.10;99.90;;;;;;4778570;29;20046;-83
2024/03/21 07:32:04;;;;;;;3.00;0.20;;;10.20;99.90;;;;;;4792834;29;20483;-83
2024/03/21 07:34:32;;;;;;;2.47;0.68;;;10.30;99.90;;;;;;4826182;29;20093;-82
2024/03/21 07:36:58;;;;;;;1.52;0.20;;;10.30;99.90;;;;;;4795564;29;20065;-82
2024/03/21 07:39:24;;;;;;;2.03;0.30;;;10.30;99.90;;;;;;4795546;29;20384;-82
2024/03/21 07:41:51;;;;;;;1.05;0.30;;;10.30;99.90;;;;;;4765626;29;20508;-82
2024/03/21 07:44:19;;;;;;;3.45;0.32;;;10.30;99.90;;;;;;4804473;29;20047;-84
2024/03/21 07:46:44;;;;;;;1.33;0.20;;;10.30;99.90;;;;;;4785407;29;20051;-85
2024/03/21 07:49:11;;;;;;;2.03;0.30;;;10.30;99.90;;;;;;4845291;29;20075;-84
2024/03/21 07:51:37;;;;;;;1.00;0.43;;;10.40;99.90;;;;;;4811096;29;20057;-84
2024/03/21 07:54:04;;;;;;;2.25;0.20;;;10.40;99.90;;;;;;4780578;29;20050;-85
2024/03/21 07:56:30;;;;;;;2.88;0.32;;;10.50;99.90;;;;;;4780394;29;20046;-83
2024/03/21 07:58:56;;;;;;;1.25;0.47;;;10.50;99.80;;;;;;4810326;29;20038;-82
2024/03/21 08:01:24;;;;;;;2.90;0.30;;;10.50;99.70;;;;;;4810204;29;20133;-82
2024/03/21 08:03:51;;;;;;;1.95;0.40;;;10.50;99.50;;;;;;4795226;29;20043;-85
2024/03/21 08:06:17;;;;;;;4.90;0.30;;;10.50;99.50;;;;;;4810410;29;20046;-84
2024/03/21 08:08:43;;;;;;;2.55;0.80;;;10.60;99.50;;;;;;4795619;29;20034;-85
2024/03/21 08:11:10;;;;;;;2.75;0.73;;;10.60;99.30;;;;;;4790977;29;20050;-84
2024/03/21 08:13:36;;;;;;;2.13;0.50;;;10.70;99.20;;;;;;4792067;29;20137;-78
2024/03/21 08:16:02;;;;;;;1.52;0.30;;;10.70;99.10;;;;;;4761918;29;20146;-77
2024/03/21 08:18:30;;;;;;;1.58;0.40;;;10.70;99.20;;;;;;4794603;29;20671;-77
2024/03/21 08:20:57;;;;;;;1.45;0.40;;;10.80;99.00;;;;;;4779813;29;20496;-78
2024/03/21 08:23:23;;;;;;;1.15;0.30;;;10.90;99.00;;;;;;4780167;29;20064;-78
2024/03/21 08:25:49;;;;;;;2.22;0.40;;;10.90;98.80;;;;;;4794575;29;20440;-78
2024/03/21 08:28:15;;;;;;;0.88;0.20;;;10.90;99.00;;;;;;4789857;29;20049;-78
2024/03/21 08:30:46;;;;;;;0.43;0.10;;;11.00;98.80;;;;;;4779951;29;20047;-78
2024/03/21 08:33:16;;;;;;;2.22;0.28;;;11.10;98.70;;;;;;4809399;29;20062;-78
2024/03/21 08:35:42;;;;;;;3.85;0.30;;;11.20;98.30;;;;;;4804593;29;20058;-78
2024/03/21 08:38:09;;;;;;;4.32;0.40;;;11.20;98.20;;;;;;4779683;29;20053;-78
2024/03/21 08:40:35;;;;;;;3.38;0.32;;;11.10;97.90;;;;;;4779358;29;20061;-77
2024/03/21 08:43:01;;;;;;;1.10;0.20;;;11.20;98.00;;;;;;4809225;29;20083;-78
2024/03/21 08:45:27;;;;;;;1.05;0.30;;;11.20;97.90;;;;;;4793574;29;20042;-78
2024/03/21 08:47:53;;;;;;;4.03;0.82;;;11.30;97.90;;;;;;4779457;29;20515;-78
2024/03/21 08:50:20;;;;;;;2.50;0.40;;;11.30;97.50;;;;;;4794084;29;20054;-77
2024/03/21 08:52:46;;;;;;;1.90;0.35;;;11.30;97.60;;;;;;4793958;29;20047;-77
2024/03/21 08:55:13;;;;;;;0.40;0.10;;;11.40;97.50;;;;;;4809062;29;20268;-77
2024/03/21 08:57:39;;;;;;;0.52;0.20;;;11.40;97.30;;;;;;4779203;29;20054;-78
2024/03/21 09:00:05;;;;;;;2.15;0.30;;;11.50;97.30;;;;;;4794104;29;20039;-78
2024/03/21 09:02:33;;;;;;;1.88;0.30;;;11.60;97.00;;;;;;4793946;29;20069;-77
2024/03/21 09:04:59;;;;;;;2.88;0.50;;;11.60;97.00;;;;;;4793907;29;20045;-78
2024/03/21 09:07:27;;;;;;;3.20;0.32;;;11.60;97.10;;;;;;4781292;29;20575;-77
2024/03/21 09:09:53;;;;;;;3.75;0.40;;;11.60;96.90;;;;;;4778866;29;20054;-77
2024/03/21 09:12:19;;;;;;;2.42;0.40;;;11.60;96.70;;;;;;4779680;29;20103;-78
2024/03/21 09:14:45;;;;;;;4.72;0.40;;;11.60;96.50;;;;;;4773788;29;20046;-77
2024/03/21 09:17:11;;;;;;;2.20;0.30;;;11.60;96.40;;;;;;4789958;29;20061;-78
2024/03/21 09:19:37;;;;;;;1.52;0.40;;;11.70;96.50;;;;;;4820028;29;20054;-78
2024/03/21 09:22:03;;;;;;;2.13;1.05;;;11.90;96.40;;;;;;4799733;29;20057;-77
2024/03/21 09:24:30;;;;;;;3.97;0.60;;;12.00;96.20;;;;;;4793767;29;20515;-78
2024/03/21 09:26:57;;;;;;;2.40;0.20;;;12.10;96.10;;;;;;4787904;29;20049;-79
2024/03/21 09:29:23;;;;;;;2.05;0.22;;;12.20;96.00;;;;;;4793536;29;20038;-77
2024/03/21 09:31:50;;;;;;;0.77;0.20;;;12.30;96.00;;;;;;4793385;29;20055;-79
2024/03/21 09:34:16;;;;;;;2.22;0.43;;;12.40;95.90;;;;;;4778703;29;20058;-78
2024/03/21 09:36:46;;;;;;;4.05;0.40;;;12.40;95.70;;;;;;4778459;29;20050;-78
2024/03/21 09:39:13;;;;;;;1.45;0.30;;;12.50;95.60;;;;;;4779158;29;20058;-78
2024/03/21 09:41:40;;;;;;;1.20;0.30;;;12.50;95.60;;;;;;4793107;29;20421;-78
2024/03/21 09:44:12;;;;;;;1.55;0.35;;;12.60;95.60;;;;;;4778123;29;20074;-78
2024/03/21 09:46:41;;;;;;;1.67;0.50;;;12.60;95.20;;;;;;4808274;29;20050;-78
2024/03/21 09:49:10;;;;;;;4.20;0.68;;;12.50;94.90;;;;;;4821080;29;20050;-77
2024/03/21 09:51:38;;;;;;;6.53;0.73;;;12.40;94.80;;;;;;4808082;29;20058;-77
2024/03/21 09:54:04;;;;;;;4.28;0.60;;;12.40;94.50;;;;;;4808164;29;20095;-78
2024/03/21 09:56:30;;;;;;;2.83;0.60;;;12.40;94.20;;;;;;4778162;29;20054;-77
2024/03/21 09:58:56;;;;;;;1.25;0.50;;;12.50;94.30;;;;;;4780598;29;20054;-78
2024/03/21 10:01:24;;;;;;;1.98;0.50;;;12.60;94.30;;;;;;4778346;29;20043;-78
2024/03/21 10:03:57;;;;;;;3.28;0.50;;;12.70;94.00;;;;;;4808381;29;20445;-78
2024/03/21 10:06:27;;;;;;;3.20;0.40;;;12.70;93.90;;;;;;4778207;29;20105;-78
2024/03/21 10:08:56;;;;;;;2.10;0.50;;;12.70;94.00;;;;;;4792916;29;20047;-78
2024/03/21 10:11:22;;;;;;;1.80;0.30;;;12.70;94.20;;;;;;4792993;29;20038;-78
2024/03/21 10:13:48;;;;;;;2.80;0.55;;;12.80;94.20;;;;;;4807758;29;20071;-78
2024/03/21 10:16:17;;;;;;;2.25;0.55;;;12.90;94.00;;;;;;4792774;29;20054;-78
2024/03/21 10:18:44;;;;;;;3.53;0.57;;;13.00;94.00;;;;;;4792697;29;20085;-78
2024/03/21 10:21:15;;;;;;;3.70;0.60;;;13.10;94.00;;;;;;4777814;29;20042;-78
2024/03/21 10:23:42;;;;;;;1.77;0.57;;;13.10;93.90;;;;;;4808013;29;20087;-79
2024/03/21 10:26:16;;;;;;;1.55;0.63;;;13.20;93.90;;;;;;4793192;29;20464;-78
2024/03/21 10:28:43;;;;;;;2.03;0.85;;;13.10;93.60;;;;;;4807898;29;20042;-78
2024/03/21 10:31:14;;;;;;;2.33;0.65;;;13.00;93.60;;;;;;4793057;29;20058;-78
2024/03/21 10:33:43;;;;;;;3.42;0.80;;;12.90;93.80;;;;;;4778502;29;20560;-78
2024/03/21 10:36:13;;;;;;;3.60;0.80;;;13.00;93.50;;;;;;4786812;29;20061;-77
2024/03/21 10:38:40;;;;;;;5.30;1.05;;;13.00;93.40;;;;;;4777946;29;20054;-77
2024/03/21 10:41:15;;;;;;;3.05;0.93;;;12.90;92.90;;;;;;4807617;29;20046;-78
2024/03/21 10:43:43;;;;;;;2.63;0.80;;;12.80;93.10;;;;;;4809678;29;20050;-78
2024/03/21 10:46:11;;;;;;;3.47;1.00;;;12.80;93.00;;;;;;4818476;29;20070;-78
2024/03/21 10:48:40;;;;;;;3.17;1.67;;;12.90;92.60;;;;;;4807464;29;20053;-78
2024/03/21 10:51:16;;;;;;;4.25;1.02;;;13.00;92.60;;;;;;4778279;29;20436;-78
2024/03/21 10:54:03;;;;;;;4.00;1.27;;;13.00;92.10;;;;;;4804393;29;20141;-78
2024/03/21 10:56:40;;;;;;;3.25;1.48;;;13.10;92.10;;;;;;4777862;29;20050;-78
2024/03/21 10:59:06;;;;;;;2.83;1.10;;;13.10;91.90;;;;;;4789794;29;20051;-77
2024/03/21 11:01:37;;;;;;;1.55;0.65;;;13.10;91.80;;;;;;4806164;29;20045;-78
2024/03/21 11:04:09;;;;;;;2.58;0.60;;;13.00;91.70;;;;;;4811181;29;20050;-79
2024/03/21 11:06:45;;;;;;;3.80;1.00;;;13.00;92.10;;;;;;4792705;29;20429;-79
2024/03/21 11:09:14;;;;;;;2.60;0.88;;;13.00;92.10;;;;;;4810883;29;20043;-78
2024/03/21 11:11:41;;;;;;;2.67;0.70;;;13.00;92.00;;;;;;4795864;29;20137;-79
2024/03/21 11:14:09;;;;;;;3.92;0.80;;;13.00;92.10;;;;;;4780732;29;20403;-78
2024/03/21 11:16:40;;;;;;;3.10;0.60;;;12.90;91.90;;;;;;4806745;29;20054;-78
2024/03/21 11:19:06;;;;;;;3.58;0.77;;;12.90;92.00;;;;;;4795543;29;20054;-78
2024/03/21 11:21:33;;;;;;;2.83;0.63;;;12.80;92.00;;;;;;4780876;29;20424;-77
2024/03/21 11:24:01;;;;;;;3.45;0.50;;;12.80;92.10;;;;;;4781030;29;20123;-78
2024/03/21 11:26:27;;;;;;;4.10;1.05;;;12.80;92.00;;;;;;4810574;29;20042;-77
2024/03/21 11:28:53;;;;;;;1.95;0.50;;;12.80;92.00;;;;;;4810596;29;20042;-77
2024/03/21 11:31:31;;;;;;;2.60;0.98;;;12.80;92.10;;;;;;4780836;29;20444;-77
2024/03/21 11:33:58;;;;;;;4.10;0.80;;;12.90;92.20;;;;;;4781135;29;20062;-77
2024/03/21 11:36:25;;;;;;;3.13;0.80;;;12.90;91.60;;;;;;4780438;29;20190;-78
2024/03/21 11:38:51;;;;;;;2.08;0.70;;;13.00;91.40;;;;;;4795815;29;20050;-78
2024/03/21 11:41:21;;;;;;;5.22;1.30;;;13.00;91.30;;;;;;4795409;29;20057;-78
2024/03/21 11:43:52;;;;;;;3.70;0.80;;;13.10;91.20;;;;;;4780504;29;20043;-78
2024/03/21 11:46:22;;;;;;;5.43;1.10;;;13.20;91.10;;;;;;4810149;29;20049;-78
2024/03/21 11:49:12;;;;;;;2.92;0.88;;;13.30;91.00;;;;;;4782984;29;20416;-78
2024/03/21 11:51:38;;;;;;;5.20;1.02;;;13.50;90.80;;;;;;4810192;29;20046;-78
2024/03/21 11:54:06;;;;;;;5.60;1.00;;;13.60;90.50;;;;;;4780507;29;20047;-78
2024/03/21 11:56:34;;;;;;;3.08;1.30;;;13.60;90.20;;;;;;4795150;29;20050;-78
2024/03/21 11:59:04;;;;;;;3.10;1.10;;;13.60;90.10;;;;;;4807622;29;20530;-77
2024/03/21 12:01:30;;;;;;;4.53;1.20;;;13.60;90.00;;;;;;4794833;29;20150;-77
2024/03/21 12:03:57;;;;;;;4.72;1.05;;;13.50;89.80;;;;;;4794736;29;20041;-77
2024/03/21 12:06:23;;;;;;;6.07;0.95;;;13.40;90.10;;;;;;4792386;29;20047;-76
2024/03/21 12:08:53;;;;;;;3.65;1.27;;;13.50;90.20;;;;;;4762670;29;20050;-78
2024/03/21 12:11:21;;;;;;;3.22;1.23;;;13.50;90.00;;;;;;4795668;29;20066;-79
2024/03/21 12:13:47;;;;;;;3.67;1.20;;;13.60;89.80;;;;;;4810143;29;20499;-83
2024/03/21 12:16:18;;;;;;;4.30;1.27;;;13.60;89.40;;;;;;4795777;29;20054;-82
2024/03/21 12:18:47;;;;;;;2.80;0.85;;;13.60;89.40;;;;;;4795334;29;20050;-83
2024/03/21 12:21:18;;;;;;;3.15;1.08;;;13.70;89.30;;;;;;4795167;29;20452;-82
2024/03/21 12:23:45;;;;;;;2.65;1.02;;;13.70;89.00;;;;;;4780067;29;20053;-81
2024/03/21 12:26:13;;;;;;;3.08;1.38;;;13.70;89.20;;;;;;4780339;29;20054;-81
2024/03/21 12:28:40;;;;;;;4.22;1.42;;;13.90;89.50;;;;;;4824871;29;20141;-82
2024/03/21 12:31:14;;;;;;;3.03;0.75;;;14.00;88.50;;;;;;4794585;29;20065;-84
2024/03/21 12:33:40;;;;;;;2.80;0.90;;;14.00;88.70;;;;;;4801003;29;20495;-83
2024/03/21 12:36:08;;;;;;;4.57;1.20;;;14.10;88.20;;;;;;4797072;29;20102;-84
2024/03/21 12:38:34;;;;;;;3.35;1.17;;;14.20;87.30;;;;;;4807892;29;20049;-83
2024/03/21 12:41:01;;;;;;;3.88;0.80;;;14.20;86.80;;;;;;4780110;29;20039;-82
2024/03/21 12:43:27;;;;;;;2.85;1.02;;;14.10;87.40;;;;;;4790481;29;20114;-83
2024/03/21 12:45:55;;;;;;;5.00;1.23;;;14.10;86.80;;;;;;4794543;29;20149;-83
2024/03/21 12:48:25;;;;;;;2.70;0.73;;;14.00;87.30;;;;;;4787202;29;20054;-84
2024/03/21 12:50:52;;;;;;;2.30;0.70;;;14.10;87.70;;;;;;4777149;29;20054;-83